sensor_id;sensor_type;location;lat;lon;timestamp;P1;durP1;ratioP1;P2;durP2;ratioP2
11533;SDS011;5823;50.588;8.462;2022-09-17T00:01:05;0.82;;;0.50;;
11533;SDS011;5823;50.588;8.462;2022-09-17T00:03:32;0.40;;;0.40;;
11533;SDS011;5823;50.588;8.462;2022-09-17T00:05:59;0.50;;;0.38;;
11533;SDS011;5823;50.588;8.462;2022-09-17T00:08:26;0.22;;;0.22;;
11533;SDS011;5823;50.588;8.462;2022-09-17T00:10:52;0.32;;;0.20;;
11533;SDS011;5823;50.588;8.462;2022-09-17T00:13:18;0.15;;;0.15;;
11533;SDS011;5823;50.588;8.462;2022-09-17T00:15:46;0.30;;;0.30;;
11533;SDS011;5823;50.588;8.462;2022-09-17T00:18:13;0.47;;;0.47;;
11533;SDS011;5823;50.588;8.462;2022-09-17T00:20:40;0.43;;;0.43;;
11533;SDS011;5823;50.588;8.462;2022-09-17T00:23:06;0.43;;;0.40;;
11533;SDS011;5823;50.588;8.462;2022-09-17T00:25:33;0.20;;;0.20;;
11533;SDS011;5823;50.588;8.462;2022-09-17T00:28:00;0.20;;;0.20;;
11533;SDS011;5823;50.588;8.462;2022-09-17T00:30:26;0.40;;;0.40;;
11533;SDS011;5823;50.588;8.462;2022-09-17T00:32:54;0.10;;;0.10;;
11533;SDS011;5823;50.588;8.462;2022-09-17T00:35:22;0.30;;;0.30;;
11533;SDS011;5823;50.588;8.462;2022-09-17T00:37:48;0.32;;;0.32;;
11533;SDS011;5823;50.588;8.462;2022-09-17T00:40:15;0.40;;;0.40;;
11533;SDS011;5823;50.588;8.462;2022-09-17T00:42:41;0.50;;;0.50;;
11533;SDS011;5823;50.588;8.462;2022-09-17T00:45:09;0.35;;;0.35;;
11533;SDS011;5823;50.588;8.462;2022-09-17T00:47:36;0.40;;;0.40;;
11533;SDS011;5823;50.588;8.462;2022-09-17T00:50:06;0.50;;;0.50;;
11533;SDS011;5823;50.588;8.462;2022-09-17T00:52:33;0.60;;;0.60;;
11533;SDS011;5823;50.588;8.462;2022-09-17T00:55:03;0.60;;;0.60;;
11533;SDS011;5823;50.588;8.462;2022-09-17T00:57:30;0.60;;;0.60;;
11533;SDS011;5823;50.588;8.462;2022-09-17T00:59:57;0.85;;;0.50;;
11533;SDS011;5823;50.588;8.462;2022-09-17T01:02:23;0.60;;;0.60;;
11533;SDS011;5823;50.588;8.462;2022-09-17T01:04:50;0.25;;;0.25;;
11533;SDS011;5823;50.588;8.462;2022-09-17T01:07:21;0.45;;;0.40;;
11533;SDS011;5823;50.588;8.462;2022-09-17T01:09:51;0.80;;;0.57;;
11533;SDS011;5823;50.588;8.462;2022-09-17T01:12:26;0.40;;;0.38;;
11533;SDS011;5823;50.588;8.462;2022-09-17T01:14:59;0.38;;;0.38;;
11533;SDS011;5823;50.588;8.462;2022-09-17T01:17:28;0.40;;;0.40;;
11533;SDS011;5823;50.588;8.462;2022-09-17T01:20:03;0.77;;;0.63;;
11533;SDS011;5823;50.588;8.462;2022-09-17T01:22:35;0.57;;;0.57;;
11533;SDS011;5823;50.588;8.462;2022-09-17T01:25:19;0.30;;;0.30;;
11533;SDS011;5823;50.588;8.462;2022-09-17T01:30:51;0.38;;;0.38;;
11533;SDS011;5823;50.588;8.462;2022-09-17T01:33:21;0.32;;;0.30;;
11533;SDS011;5823;50.588;8.462;2022-09-17T01:35:52;0.20;;;0.20;;
11533;SDS011;5823;50.588;8.462;2022-09-17T01:38:24;0.10;;;0.10;;
11533;SDS011;5823;50.588;8.462;2022-09-17T01:40:52;0.20;;;0.20;;
11533;SDS011;5823;50.588;8.462;2022-09-17T01:43:21;0.43;;;0.20;;
11533;SDS011;5823;50.588;8.462;2022-09-17T01:45:50;0.17;;;0.17;;
11533;SDS011;5823;50.588;8.462;2022-09-17T01:48:17;0.10;;;0.10;;
11533;SDS011;5823;50.588;8.462;2022-09-17T01:50:45;0.20;;;0.20;;
11533;SDS011;5823;50.588;8.462;2022-09-17T01:53:12;0.20;;;0.20;;
11533;SDS011;5823;50.588;8.462;2022-09-17T01:55:41;0.20;;;0.20;;
11533;SDS011;5823;50.588;8.462;2022-09-17T01:58:10;0.10;;;0.10;;
11533;SDS011;5823;50.588;8.462;2022-09-17T02:00:39;0.22;;;0.10;;
11533;SDS011;5823;50.588;8.462;2022-09-17T02:03:08;0.10;;;0.10;;
11533;SDS011;5823;50.588;8.462;2022-09-17T02:05:36;0.43;;;0.10;;
11533;SDS011;5823;50.588;8.462;2022-09-17T02:08:05;0.00;;;0.00;;
11533;SDS011;5823;50.588;8.462;2022-09-17T02:10:33;0.10;;;0.10;;
11533;SDS011;5823;50.588;8.462;2022-09-17T02:13:03;0.03;;;0.03;;
11533;SDS011;5823;50.588;8.462;2022-09-17T02:15:33;0.08;;;0.08;;
11533;SDS011;5823;50.588;8.462;2022-09-17T02:18:02;0.00;;;0.00;;
11533;SDS011;5823;50.588;8.462;2022-09-17T02:20:34;0.10;;;0.10;;
11533;SDS011;5823;50.588;8.462;2022-09-17T02:23:05;0.08;;;0.08;;
11533;SDS011;5823;50.588;8.462;2022-09-17T02:25:35;0.10;;;0.10;;
11533;SDS011;5823;50.588;8.462;2022-09-17T02:28:02;0.00;;;0.00;;
11533;SDS011;5823;50.588;8.462;2022-09-17T02:30:31;0.05;;;0.05;;
11533;SDS011;5823;50.588;8.462;2022-09-17T02:32:57;0.10;;;0.10;;
11533;SDS011;5823;50.588;8.462;2022-09-17T02:35:24;0.25;;;0.25;;
11533;SDS011;5823;50.588;8.462;2022-09-17T02:37:52;0.10;;;0.10;;
11533;SDS011;5823;50.588;8.462;2022-09-17T02:40:18;0.22;;;0.22;;
11533;SDS011;5823;50.588;8.462;2022-09-17T02:42:52;0.15;;;0.10;;
11533;SDS011;5823;50.588;8.462;2022-09-17T02:45:25;0.05;;;0.05;;
11533;SDS011;5823;50.588;8.462;2022-09-17T02:50:47;0.30;;;0.30;;
11533;SDS011;5823;50.588;8.462;2022-09-17T02:53:26;0.10;;;0.10;;
11533;SDS011;5823;50.588;8.462;2022-09-17T02:55:58;0.20;;;0.20;;
11533;SDS011;5823;50.588;8.462;2022-09-17T02:58:27;0.10;;;0.10;;
11533;SDS011;5823;50.588;8.462;2022-09-17T03:00:58;0.10;;;0.10;;
11533;SDS011;5823;50.588;8.462;2022-09-17T03:03:28;0.20;;;0.20;;
11533;SDS011;5823;50.588;8.462;2022-09-17T03:05:55;0.10;;;0.10;;
11533;SDS011;5823;50.588;8.462;2022-09-17T03:08:28;0.10;;;0.10;;
11533;SDS011;5823;50.588;8.462;2022-09-17T03:10:55;0.10;;;0.10;;
11533;SDS011;5823;50.588;8.462;2022-09-17T03:13:21;0.20;;;0.20;;
11533;SDS011;5823;50.588;8.462;2022-09-17T03:15:48;0.10;;;0.10;;
11533;SDS011;5823;50.588;8.462;2022-09-17T03:18:14;0.00;;;0.00;;
11533;SDS011;5823;50.588;8.462;2022-09-17T03:20:40;0.08;;;0.08;;
11533;SDS011;5823;50.588;8.462;2022-09-17T03:23:10;0.10;;;0.10;;
11533;SDS011;5823;50.588;8.462;2022-09-17T03:25:37;0.10;;;0.10;;
11533;SDS011;5823;50.588;8.462;2022-09-17T03:28:03;0.00;;;0.00;;
11533;SDS011;5823;50.588;8.462;2022-09-17T03:30:30;0.10;;;0.10;;
11533;SDS011;5823;50.588;8.462;2022-09-17T03:32:56;0.00;;;0.00;;
11533;SDS011;5823;50.588;8.462;2022-09-17T03:35:22;0.13;;;0.13;;
11533;SDS011;5823;50.588;8.462;2022-09-17T03:37:49;0.00;;;0.00;;
11533;SDS011;5823;50.588;8.462;2022-09-17T03:40:15;0.17;;;0.17;;
11533;SDS011;5823;50.588;8.462;2022-09-17T03:42:43;0.10;;;0.10;;
11533;SDS011;5823;50.588;8.462;2022-09-17T03:45:09;0.17;;;0.10;;
11533;SDS011;5823;50.588;8.462;2022-09-17T03:47:36;0.00;;;0.00;;
11533;SDS011;5823;50.588;8.462;2022-09-17T03:50:02;0.17;;;0.10;;
11533;SDS011;5823;50.588;8.462;2022-09-17T03:52:29;0.05;;;0.05;;
11533;SDS011;5823;50.588;8.462;2022-09-17T03:54:55;0.10;;;0.10;;
11533;SDS011;5823;50.588;8.462;2022-09-17T03:57:22;0.10;;;0.10;;
11533;SDS011;5823;50.588;8.462;2022-09-17T03:59:49;0.20;;;0.10;;
11533;SDS011;5823;50.588;8.462;2022-09-17T04:02:16;0.00;;;0.00;;
11533;SDS011;5823;50.588;8.462;2022-09-17T04:04:42;0.00;;;0.00;;
11533;SDS011;5823;50.588;8.462;2022-09-17T04:07:09;0.00;;;0.00;;
11533;SDS011;5823;50.588;8.462;2022-09-17T04:09:36;0.22;;;0.10;;
11533;SDS011;5823;50.588;8.462;2022-09-17T04:12:02;0.17;;;0.17;;
11533;SDS011;5823;50.588;8.462;2022-09-17T04:14:28;0.00;;;0.00;;
11533;SDS011;5823;50.588;8.462;2022-09-17T04:16:56;0.00;;;0.00;;
11533;SDS011;5823;50.588;8.462;2022-09-17T04:19:22;0.00;;;0.00;;
11533;SDS011;5823;50.588;8.462;2022-09-17T04:21:49;0.10;;;0.10;;
11533;SDS011;5823;50.588;8.462;2022-09-17T04:24:15;0.00;;;0.00;;
11533;SDS011;5823;50.588;8.462;2022-09-17T04:26:41;0.00;;;0.00;;
11533;SDS011;5823;50.588;8.462;2022-09-17T04:29:08;0.00;;;0.00;;
11533;SDS011;5823;50.588;8.462;2022-09-17T04:31:34;0.13;;;0.13;;
11533;SDS011;5823;50.588;8.462;2022-09-17T04:34:02;0.13;;;0.13;;
11533;SDS011;5823;50.588;8.462;2022-09-17T04:36:28;0.25;;;0.25;;
11533;SDS011;5823;50.588;8.462;2022-09-17T04:38:54;0.00;;;0.00;;
11533;SDS011;5823;50.588;8.462;2022-09-17T04:41:21;0.00;;;0.00;;
11533;SDS011;5823;50.588;8.462;2022-09-17T04:43:47;0.00;;;0.00;;
11533;SDS011;5823;50.588;8.462;2022-09-17T04:46:13;0.38;;;0.10;;
11533;SDS011;5823;50.588;8.462;2022-09-17T04:48:40;0.28;;;0.13;;
11533;SDS011;5823;50.588;8.462;2022-09-17T04:51:08;0.10;;;0.10;;
11533;SDS011;5823;50.588;8.462;2022-09-17T04:53:34;0.20;;;0.20;;
11533;SDS011;5823;50.588;8.462;2022-09-17T04:56:01;0.10;;;0.10;;
11533;SDS011;5823;50.588;8.462;2022-09-17T04:58:27;0.25;;;0.20;;
11533;SDS011;5823;50.588;8.462;2022-09-17T05:00:55;0.15;;;0.10;;
11533;SDS011;5823;50.588;8.462;2022-09-17T05:03:21;0.10;;;0.10;;
11533;SDS011;5823;50.588;8.462;2022-09-17T05:05:47;0.10;;;0.10;;
11533;SDS011;5823;50.588;8.462;2022-09-17T05:08:15;0.40;;;0.22;;
11533;SDS011;5823;50.588;8.462;2022-09-17T05:10:41;0.15;;;0.15;;
11533;SDS011;5823;50.588;8.462;2022-09-17T05:13:07;0.45;;;0.10;;
11533;SDS011;5823;50.588;8.462;2022-09-17T05:15:34;0.28;;;0.10;;
11533;SDS011;5823;50.588;8.462;2022-09-17T05:18:00;0.17;;;0.10;;
11533;SDS011;5823;50.588;8.462;2022-09-17T05:20:26;0.10;;;0.10;;
11533;SDS011;5823;50.588;8.462;2022-09-17T05:22:53;0.30;;;0.30;;
11533;SDS011;5823;50.588;8.462;2022-09-17T05:25:21;0.30;;;0.22;;
11533;SDS011;5823;50.588;8.462;2022-09-17T05:27:48;0.05;;;0.05;;
11533;SDS011;5823;50.588;8.462;2022-09-17T05:30:15;0.10;;;0.10;;
11533;SDS011;5823;50.588;8.462;2022-09-17T05:32:41;0.00;;;0.00;;
11533;SDS011;5823;50.588;8.462;2022-09-17T05:35:08;0.20;;;0.20;;
11533;SDS011;5823;50.588;8.462;2022-09-17T05:37:34;0.10;;;0.10;;
11533;SDS011;5823;50.588;8.462;2022-09-17T05:40:01;0.30;;;0.28;;
11533;SDS011;5823;50.588;8.462;2022-09-17T05:42:29;0.03;;;0.03;;
11533;SDS011;5823;50.588;8.462;2022-09-17T05:44:55;0.20;;;0.15;;
11533;SDS011;5823;50.588;8.462;2022-09-17T05:47:21;0.03;;;0.00;;
11533;SDS011;5823;50.588;8.462;2022-09-17T05:49:47;0.30;;;0.30;;
11533;SDS011;5823;50.588;8.462;2022-09-17T05:52:14;0.10;;;0.10;;
11533;SDS011;5823;50.588;8.462;2022-09-17T05:54:40;0.10;;;0.10;;
11533;SDS011;5823;50.588;8.462;2022-09-17T05:57:07;0.20;;;0.20;;
11533;SDS011;5823;50.588;8.462;2022-09-17T05:59:35;0.13;;;0.00;;
11533;SDS011;5823;50.588;8.462;2022-09-17T06:02:01;0.20;;;0.20;;
11533;SDS011;5823;50.588;8.462;2022-09-17T06:04:27;0.47;;;0.20;;
11533;SDS011;5823;50.588;8.462;2022-09-17T06:06:54;0.10;;;0.10;;
11533;SDS011;5823;50.588;8.462;2022-09-17T06:09:20;0.10;;;0.10;;
11533;SDS011;5823;50.588;8.462;2022-09-17T06:11:46;0.13;;;0.10;;
11533;SDS011;5823;50.588;8.462;2022-09-17T06:14:12;0.00;;;0.00;;
11533;SDS011;5823;50.588;8.462;2022-09-17T06:16:40;0.10;;;0.10;;
11533;SDS011;5823;50.588;8.462;2022-09-17T06:19:07;0.20;;;0.20;;
11533;SDS011;5823;50.588;8.462;2022-09-17T06:21:33;0.13;;;0.10;;
11533;SDS011;5823;50.588;8.462;2022-09-17T06:23:59;0.25;;;0.25;;
11533;SDS011;5823;50.588;8.462;2022-09-17T06:26:26;0.40;;;0.40;;
11533;SDS011;5823;50.588;8.462;2022-09-17T06:28:52;0.28;;;0.28;;
11533;SDS011;5823;50.588;8.462;2022-09-17T06:31:18;0.15;;;0.15;;
11533;SDS011;5823;50.588;8.462;2022-09-17T06:33:46;0.20;;;0.20;;
11533;SDS011;5823;50.588;8.462;2022-09-17T06:36:13;0.85;;;0.40;;
11533;SDS011;5823;50.588;8.462;2022-09-17T06:38:39;0.85;;;0.80;;
11533;SDS011;5823;50.588;8.462;2022-09-17T06:41:05;0.50;;;0.50;;
11533;SDS011;5823;50.588;8.462;2022-09-17T06:43:32;0.63;;;0.40;;
11533;SDS011;5823;50.588;8.462;2022-09-17T06:45:59;0.30;;;0.30;;
11533;SDS011;5823;50.588;8.462;2022-09-17T06:48:26;0.95;;;0.40;;
11533;SDS011;5823;50.588;8.462;2022-09-17T06:50:54;0.73;;;0.57;;
11533;SDS011;5823;50.588;8.462;2022-09-17T06:53:21;0.30;;;0.30;;
11533;SDS011;5823;50.588;8.462;2022-09-17T06:55:47;1.17;;;1.08;;
11533;SDS011;5823;50.588;8.462;2022-09-17T06:58:14;0.60;;;0.60;;
11533;SDS011;5823;50.588;8.462;2022-09-17T07:00:40;1.38;;;0.70;;
11533;SDS011;5823;50.588;8.462;2022-09-17T07:03:07;0.73;;;0.63;;
11533;SDS011;5823;50.588;8.462;2022-09-17T07:05:34;0.40;;;0.40;;
11533;SDS011;5823;50.588;8.462;2022-09-17T07:08:01;0.60;;;0.60;;
11533;SDS011;5823;50.588;8.462;2022-09-17T07:10:28;1.02;;;0.80;;
11533;SDS011;5823;50.588;8.462;2022-09-17T07:12:55;0.82;;;0.82;;
11533;SDS011;5823;50.588;8.462;2022-09-17T07:15:21;1.52;;;1.00;;
11533;SDS011;5823;50.588;8.462;2022-09-17T07:17:47;0.73;;;0.73;;
11533;SDS011;5823;50.588;8.462;2022-09-17T07:20:14;1.10;;;0.80;;
11533;SDS011;5823;50.588;8.462;2022-09-17T07:22:40;0.88;;;0.70;;
11533;SDS011;5823;50.588;8.462;2022-09-17T07:25:08;1.67;;;1.00;;
11533;SDS011;5823;50.588;8.462;2022-09-17T07:27:34;2.22;;;1.17;;
11533;SDS011;5823;50.588;8.462;2022-09-17T07:30:00;1.25;;;1.15;;
11533;SDS011;5823;50.588;8.462;2022-09-17T07:32:27;0.80;;;0.80;;
11533;SDS011;5823;50.588;8.462;2022-09-17T07:34:54;1.08;;;0.80;;
11533;SDS011;5823;50.588;8.462;2022-09-17T07:37:20;0.63;;;0.57;;
11533;SDS011;5823;50.588;8.462;2022-09-17T07:39:47;0.40;;;0.40;;
11533;SDS011;5823;50.588;8.462;2022-09-17T07:42:14;0.93;;;0.60;;
11533;SDS011;5823;50.588;8.462;2022-09-17T07:44:41;1.10;;;1.00;;
11533;SDS011;5823;50.588;8.462;2022-09-17T07:47:07;2.10;;;1.10;;
11533;SDS011;5823;50.588;8.462;2022-09-17T07:49:34;0.82;;;0.70;;
11533;SDS011;5823;50.588;8.462;2022-09-17T07:52:00;0.45;;;0.45;;
11533;SDS011;5823;50.588;8.462;2022-09-17T07:54:30;0.65;;;0.63;;
11533;SDS011;5823;50.588;8.462;2022-09-17T07:56:56;0.55;;;0.50;;
11533;SDS011;5823;50.588;8.462;2022-09-17T07:59:24;0.95;;;0.60;;
11533;SDS011;5823;50.588;8.462;2022-09-17T08:01:50;1.88;;;1.02;;
11533;SDS011;5823;50.588;8.462;2022-09-17T08:04:16;1.10;;;0.90;;
11533;SDS011;5823;50.588;8.462;2022-09-17T08:06:43;1.15;;;0.95;;
11533;SDS011;5823;50.588;8.462;2022-09-17T08:09:12;1.10;;;0.68;;
11533;SDS011;5823;50.588;8.462;2022-09-17T08:11:39;0.55;;;0.55;;
11533;SDS011;5823;50.588;8.462;2022-09-17T08:14:06;1.17;;;0.90;;
11533;SDS011;5823;50.588;8.462;2022-09-17T08:16:36;0.90;;;0.60;;
11533;SDS011;5823;50.588;8.462;2022-09-17T08:19:02;2.05;;;1.00;;
11533;SDS011;5823;50.588;8.462;2022-09-17T08:21:28;0.60;;;0.47;;
11533;SDS011;5823;50.588;8.462;2022-09-17T08:23:55;0.50;;;0.50;;
11533;SDS011;5823;50.588;8.462;2022-09-17T08:26:22;1.00;;;0.88;;
11533;SDS011;5823;50.588;8.462;2022-09-17T08:28:49;0.73;;;0.68;;
11533;SDS011;5823;50.588;8.462;2022-09-17T08:31:18;1.20;;;1.05;;
11533;SDS011;5823;50.588;8.462;2022-09-17T08:33:46;1.20;;;0.88;;
11533;SDS011;5823;50.588;8.462;2022-09-17T08:36:13;0.77;;;0.70;;
11533;SDS011;5823;50.588;8.462;2022-09-17T08:38:40;1.10;;;0.80;;
11533;SDS011;5823;50.588;8.462;2022-09-17T08:41:14;0.90;;;0.60;;
11533;SDS011;5823;50.588;8.462;2022-09-17T08:43:45;0.73;;;0.60;;
11533;SDS011;5823;50.588;8.462;2022-09-17T08:46:13;0.50;;;0.50;;
11533;SDS011;5823;50.588;8.462;2022-09-17T08:48:40;0.75;;;0.70;;
11533;SDS011;5823;50.588;8.462;2022-09-17T08:51:10;1.20;;;0.80;;
11533;SDS011;5823;50.588;8.462;2022-09-17T08:53:41;0.63;;;0.50;;
11533;SDS011;5823;50.588;8.462;2022-09-17T08:56:12;0.60;;;0.47;;
11533;SDS011;5823;50.588;8.462;2022-09-17T08:58:40;1.27;;;0.70;;
11533;SDS011;5823;50.588;8.462;2022-09-17T09:01:09;1.75;;;0.88;;
11533;SDS011;5823;50.588;8.462;2022-09-17T09:03:40;1.20;;;1.00;;
11533;SDS011;5823;50.588;8.462;2022-09-17T09:06:13;1.80;;;0.98;;
11533;SDS011;5823;50.588;8.462;2022-09-17T09:08:41;1.30;;;0.77;;
11533;SDS011;5823;50.588;8.462;2022-09-17T09:11:10;2.42;;;1.08;;
11533;SDS011;5823;50.588;8.462;2022-09-17T09:13:39;0.60;;;0.60;;
11533;SDS011;5823;50.588;8.462;2022-09-17T09:16:09;1.45;;;1.00;;
11533;SDS011;5823;50.588;8.462;2022-09-17T09:18:38;0.63;;;0.45;;
11533;SDS011;5823;50.588;8.462;2022-09-17T09:21:09;2.22;;;0.98;;
11533;SDS011;5823;50.588;8.462;2022-09-17T09:23:42;0.55;;;0.45;;
11533;SDS011;5823;50.588;8.462;2022-09-17T09:26:15;0.57;;;0.55;;
11533;SDS011;5823;50.588;8.462;2022-09-17T09:31:30;1.95;;;1.05;;
11533;SDS011;5823;50.588;8.462;2022-09-17T09:33:59;1.13;;;0.73;;
11533;SDS011;5823;50.588;8.462;2022-09-17T09:36:27;0.47;;;0.47;;
11533;SDS011;5823;50.588;8.462;2022-09-17T09:38:56;0.63;;;0.47;;
11533;SDS011;5823;50.588;8.462;2022-09-17T09:41:26;0.95;;;0.45;;
11533;SDS011;5823;50.588;8.462;2022-09-17T09:43:56;0.30;;;0.30;;
11533;SDS011;5823;50.588;8.462;2022-09-17T09:46:30;0.30;;;0.30;;
11533;SDS011;5823;50.588;8.462;2022-09-17T09:49:03;1.02;;;0.50;;
11533;SDS011;5823;50.588;8.462;2022-09-17T09:51:33;0.70;;;0.45;;
11533;SDS011;5823;50.588;8.462;2022-09-17T09:54:11;0.10;;;0.10;;
11533;SDS011;5823;50.588;8.462;2022-09-17T09:56:46;1.35;;;0.50;;
11533;SDS011;5823;50.588;8.462;2022-09-17T09:59:17;1.00;;;0.47;;
11533;SDS011;5823;50.588;8.462;2022-09-17T10:01:43;0.60;;;0.50;;
11533;SDS011;5823;50.588;8.462;2022-09-17T10:04:13;0.90;;;0.40;;
11533;SDS011;5823;50.588;8.462;2022-09-17T10:06:40;0.63;;;0.40;;
11533;SDS011;5823;50.588;8.462;2022-09-17T10:09:12;0.17;;;0.17;;
11533;SDS011;5823;50.588;8.462;2022-09-17T10:11:39;0.40;;;0.30;;
11533;SDS011;5823;50.588;8.462;2022-09-17T10:14:13;1.67;;;0.73;;
11533;SDS011;5823;50.588;8.462;2022-09-17T10:16:39;0.75;;;0.55;;
11533;SDS011;5823;50.588;8.462;2022-09-17T10:19:10;0.50;;;0.40;;
11533;SDS011;5823;50.588;8.462;2022-09-17T10:21:38;0.68;;;0.30;;
11533;SDS011;5823;50.588;8.462;2022-09-17T10:24:09;0.20;;;0.15;;
11533;SDS011;5823;50.588;8.462;2022-09-17T10:26:38;0.35;;;0.35;;
11533;SDS011;5823;50.588;8.462;2022-09-17T10:29:05;0.57;;;0.30;;
11533;SDS011;5823;50.588;8.462;2022-09-17T10:31:44;0.80;;;0.50;;
11533;SDS011;5823;50.588;8.462;2022-09-17T10:34:17;0.45;;;0.35;;
11533;SDS011;5823;50.588;8.462;2022-09-17T10:36:45;0.73;;;0.60;;
11533;SDS011;5823;50.588;8.462;2022-09-17T10:42:00;0.65;;;0.38;;
11533;SDS011;5823;50.588;8.462;2022-09-17T10:44:27;0.63;;;0.40;;
11533;SDS011;5823;50.588;8.462;2022-09-17T10:46:59;0.73;;;0.40;;
11533;SDS011;5823;50.588;8.462;2022-09-17T10:49:30;0.93;;;0.30;;
11533;SDS011;5823;50.588;8.462;2022-09-17T10:52:03;1.55;;;0.40;;
11533;SDS011;5823;50.588;8.462;2022-09-17T10:57:20;0.20;;;0.10;;
11533;SDS011;5823;50.588;8.462;2022-09-17T10:59:54;0.28;;;0.28;;
11533;SDS011;5823;50.588;8.462;2022-09-17T11:02:28;0.40;;;0.40;;
11533;SDS011;5823;50.588;8.462;2022-09-17T11:04:58;0.60;;;0.47;;
11533;SDS011;5823;50.588;8.462;2022-09-17T11:07:32;0.20;;;0.20;;
11533;SDS011;5823;50.588;8.462;2022-09-17T11:10:10;1.00;;;0.50;;
11533;SDS011;5823;50.588;8.462;2022-09-17T11:12:44;0.93;;;0.52;;
11533;SDS011;5823;50.588;8.462;2022-09-17T11:15:19;0.63;;;0.40;;
11533;SDS011;5823;50.588;8.462;2022-09-17T11:17:57;0.60;;;0.32;;
11533;SDS011;5823;50.588;8.462;2022-09-17T11:20:30;0.47;;;0.43;;
11533;SDS011;5823;50.588;8.462;2022-09-17T11:23:02;0.73;;;0.50;;
11533;SDS011;5823;50.588;8.462;2022-09-17T11:25:35;0.30;;;0.30;;
11533;SDS011;5823;50.588;8.462;2022-09-17T11:28:07;0.35;;;0.35;;
11533;SDS011;5823;50.588;8.462;2022-09-17T11:30:39;1.42;;;0.63;;
11533;SDS011;5823;50.588;8.462;2022-09-17T11:33:20;0.32;;;0.32;;
11533;SDS011;5823;50.588;8.462;2022-09-17T11:35:49;0.10;;;0.10;;
11533;SDS011;5823;50.588;8.462;2022-09-17T11:38:19;0.63;;;0.40;;
11533;SDS011;5823;50.588;8.462;2022-09-17T11:40:49;0.40;;;0.22;;
11533;SDS011;5823;50.588;8.462;2022-09-17T11:43:19;0.20;;;0.20;;
11533;SDS011;5823;50.588;8.462;2022-09-17T11:45:51;0.20;;;0.20;;
11533;SDS011;5823;50.588;8.462;2022-09-17T11:48:18;0.30;;;0.30;;
11533;SDS011;5823;50.588;8.462;2022-09-17T11:50:46;0.35;;;0.32;;
11533;SDS011;5823;50.588;8.462;2022-09-17T11:53:14;1.67;;;0.25;;
11533;SDS011;5823;50.588;8.462;2022-09-17T11:55:43;0.10;;;0.10;;
11533;SDS011;5823;50.588;8.462;2022-09-17T11:58:12;0.60;;;0.30;;
11533;SDS011;5823;50.588;8.462;2022-09-17T12:00:43;0.10;;;0.10;;
11533;SDS011;5823;50.588;8.462;2022-09-17T12:03:12;0.03;;;0.03;;
11533;SDS011;5823;50.588;8.462;2022-09-17T12:05:41;0.38;;;0.15;;
11533;SDS011;5823;50.588;8.462;2022-09-17T12:08:11;0.10;;;0.10;;
11533;SDS011;5823;50.588;8.462;2022-09-17T12:10:40;0.10;;;0.10;;
11533;SDS011;5823;50.588;8.462;2022-09-17T12:13:17;0.28;;;0.20;;
11533;SDS011;5823;50.588;8.462;2022-09-17T12:15:48;0.35;;;0.35;;
11533;SDS011;5823;50.588;8.462;2022-09-17T12:18:19;0.10;;;0.10;;
11533;SDS011;5823;50.588;8.462;2022-09-17T12:20:49;0.10;;;0.10;;
11533;SDS011;5823;50.588;8.462;2022-09-17T12:23:18;0.55;;;0.17;;
11533;SDS011;5823;50.588;8.462;2022-09-17T12:25:47;0.20;;;0.20;;
11533;SDS011;5823;50.588;8.462;2022-09-17T12:28:17;0.30;;;0.30;;
11533;SDS011;5823;50.588;8.462;2022-09-17T12:30:48;0.10;;;0.10;;
11533;SDS011;5823;50.588;8.462;2022-09-17T12:33:19;0.30;;;0.20;;
11533;SDS011;5823;50.588;8.462;2022-09-17T12:36:06;0.20;;;0.20;;
11533;SDS011;5823;50.588;8.462;2022-09-17T12:38:50;0.43;;;0.38;;
11533;SDS011;5823;50.588;8.462;2022-09-17T12:41:23;0.50;;;0.20;;
11533;SDS011;5823;50.588;8.462;2022-09-17T12:43:58;1.23;;;0.30;;
11533;SDS011;5823;50.588;8.462;2022-09-17T12:46:35;0.45;;;0.30;;
11533;SDS011;5823;50.588;8.462;2022-09-17T12:51:58;0.40;;;0.40;;
11533;SDS011;5823;50.588;8.462;2022-09-17T12:54:31;0.52;;;0.28;;
11533;SDS011;5823;50.588;8.462;2022-09-17T12:57:02;0.20;;;0.20;;
11533;SDS011;5823;50.588;8.462;2022-09-17T12:59:34;0.10;;;0.10;;
11533;SDS011;5823;50.588;8.462;2022-09-17T13:02:03;0.10;;;0.10;;
11533;SDS011;5823;50.588;8.462;2022-09-17T13:04:47;0.03;;;0.00;;
11533;SDS011;5823;50.588;8.462;2022-09-17T13:07:25;0.10;;;0.10;;
11533;SDS011;5823;50.588;8.462;2022-09-17T13:10:00;0.05;;;0.05;;
11533;SDS011;5823;50.588;8.462;2022-09-17T13:12:29;0.30;;;0.30;;
11533;SDS011;5823;50.588;8.462;2022-09-17T13:15:18;0.17;;;0.13;;
11533;SDS011;5823;50.588;8.462;2022-09-17T13:17:48;0.45;;;0.13;;
11533;SDS011;5823;50.588;8.462;2022-09-17T13:20:18;0.10;;;0.10;;
11533;SDS011;5823;50.588;8.462;2022-09-17T13:22:47;0.30;;;0.30;;
11533;SDS011;5823;50.588;8.462;2022-09-17T13:25:15;0.25;;;0.20;;
11533;SDS011;5823;50.588;8.462;2022-09-17T13:27:42;0.03;;;0.03;;
11533;SDS011;5823;50.588;8.462;2022-09-17T13:30:09;0.00;;;0.00;;
11533;SDS011;5823;50.588;8.462;2022-09-17T13:32:47;0.38;;;0.25;;
11533;SDS011;5823;50.588;8.462;2022-09-17T13:37:59;0.35;;;0.13;;
11533;SDS011;5823;50.588;8.462;2022-09-17T13:40:26;0.00;;;0.00;;
11533;SDS011;5823;50.588;8.462;2022-09-17T13:42:53;0.10;;;0.10;;
11533;SDS011;5823;50.588;8.462;2022-09-17T13:45:21;0.00;;;0.00;;
11533;SDS011;5823;50.588;8.462;2022-09-17T13:47:49;0.13;;;0.13;;
11533;SDS011;5823;50.588;8.462;2022-09-17T13:50:24;0.08;;;0.08;;
11533;SDS011;5823;50.588;8.462;2022-09-17T13:52:51;0.73;;;0.10;;
11533;SDS011;5823;50.588;8.462;2022-09-17T13:55:28;0.10;;;0.00;;
11533;SDS011;5823;50.588;8.462;2022-09-17T13:57:56;0.20;;;0.10;;
11533;SDS011;5823;50.588;8.462;2022-09-17T14:05:50;0.00;;;0.00;;
11533;SDS011;5823;50.588;8.462;2022-09-17T14:08:24;0.32;;;0.17;;
11533;SDS011;5823;50.588;8.462;2022-09-17T14:10:52;0.10;;;0.10;;
11533;SDS011;5823;50.588;8.462;2022-09-17T14:13:23;0.22;;;0.10;;
11533;SDS011;5823;50.588;8.462;2022-09-17T14:21:23;0.13;;;0.10;;
11533;SDS011;5823;50.588;8.462;2022-09-17T14:23:53;0.00;;;0.00;;
11533;SDS011;5823;50.588;8.462;2022-09-17T14:26:24;0.03;;;0.03;;
11533;SDS011;5823;50.588;8.462;2022-09-17T14:28:54;0.10;;;0.00;;
11533;SDS011;5823;50.588;8.462;2022-09-17T14:31:26;0.00;;;0.00;;
11533;SDS011;5823;50.588;8.462;2022-09-17T14:33:55;0.10;;;0.10;;
11533;SDS011;5823;50.588;8.462;2022-09-17T14:36:23;0.30;;;0.10;;
11533;SDS011;5823;50.588;8.462;2022-09-17T14:38:50;0.00;;;0.00;;
11533;SDS011;5823;50.588;8.462;2022-09-17T14:41:19;0.00;;;0.00;;
11533;SDS011;5823;50.588;8.462;2022-09-17T14:43:47;0.00;;;0.00;;
11533;SDS011;5823;50.588;8.462;2022-09-17T14:46:16;0.00;;;0.00;;
11533;SDS011;5823;50.588;8.462;2022-09-17T14:48:44;0.15;;;0.05;;
11533;SDS011;5823;50.588;8.462;2022-09-17T14:54:18;0.00;;;0.00;;
11533;SDS011;5823;50.588;8.462;2022-09-17T14:56:46;0.10;;;0.10;;
11533;SDS011;5823;50.588;8.462;2022-09-17T14:59:16;0.30;;;0.10;;
11533;SDS011;5823;50.588;8.462;2022-09-17T15:01:44;0.00;;;0.00;;
11533;SDS011;5823;50.588;8.462;2022-09-17T15:04:21;0.15;;;0.00;;
11533;SDS011;5823;50.588;8.462;2022-09-17T15:06:48;0.10;;;0.10;;
11533;SDS011;5823;50.588;8.462;2022-09-17T15:09:15;0.10;;;0.10;;
11533;SDS011;5823;50.588;8.462;2022-09-17T15:11:44;0.10;;;0.10;;
11533;SDS011;5823;50.588;8.462;2022-09-17T15:14:14;0.00;;;0.00;;
11533;SDS011;5823;50.588;8.462;2022-09-17T15:16:44;0.00;;;0.00;;
11533;SDS011;5823;50.588;8.462;2022-09-17T15:19:21;0.00;;;0.00;;
11533;SDS011;5823;50.588;8.462;2022-09-17T15:21:47;0.00;;;0.00;;
11533;SDS011;5823;50.588;8.462;2022-09-17T15:24:17;0.00;;;0.00;;
11533;SDS011;5823;50.588;8.462;2022-09-17T15:26:47;0.25;;;0.15;;
11533;SDS011;5823;50.588;8.462;2022-09-17T15:29:14;0.00;;;0.00;;
11533;SDS011;5823;50.588;8.462;2022-09-17T15:31:40;0.00;;;0.00;;
11533;SDS011;5823;50.588;8.462;2022-09-17T15:34:08;0.00;;;0.00;;
11533;SDS011;5823;50.588;8.462;2022-09-17T15:36:35;1.45;;;0.10;;
11533;SDS011;5823;50.588;8.462;2022-09-17T15:39:04;0.20;;;0.13;;
11533;SDS011;5823;50.588;8.462;2022-09-17T15:41:54;0.10;;;0.10;;
11533;SDS011;5823;50.588;8.462;2022-09-17T15:44:22;0.00;;;0.00;;